Time;durP1;ratioP1;P1;durP2;ratioP2;P2;SDS_P1;SDS_P2;PMS_P1;PMS_P2;Temp;Humidity;BMP_temperature;BMP_pressure;BME280_temperature;BME280_humidity;BME280_pressure;Samples;Min_cycle;Max_cycle;Signal;HPM_P1;HPM_P2
2022/05/09 00:02:06;;;;;;;13.98;9.73;;;14.10;99.90;;;;;;5108066;28;20039;-64
2022/05/09 00:04:35;;;;;;;12.35;10.82;;;14.10;99.90;;;;;;5105338;28;20043;-64
2022/05/09 00:07:03;;;;;;;14.60;10.60;;;14.10;99.90;;;;;;5098843;28;20054;-64
2022/05/09 00:09:31;;;;;;;16.25;10.10;;;14.10;99.90;;;;;;5091872;28;20444;-64
2022/05/09 00:11:58;;;;;;;11.88;10.00;;;14.10;99.90;;;;;;5092945;28;20121;-64
2022/05/09 00:14:26;;;;;;;11.82;9.32;;;14.10;99.90;;;;;;5108002;28;20040;-64
2022/05/09 00:16:53;;;;;;;12.02;9.43;;;14.10;99.90;;;;;;5094895;28;20595;-64
2022/05/09 00:19:21;;;;;;;11.35;9.07;;;14.10;99.90;;;;;;5107595;28;20051;-64
2022/05/09 00:21:51;;;;;;;11.77;9.38;;;14.10;99.90;;;;;;5109216;28;20547;-65
2022/05/09 00:24:19;;;;;;;11.38;9.32;;;14.10;99.90;;;;;;5090249;28;20147;-64
2022/05/09 00:26:51;;;;;;;12.20;8.38;;;14.10;99.90;;;;;;5089014;28;20353;-64
2022/05/09 00:29:23;;;;;;;13.50;8.95;;;14.10;99.90;;;;;;5087618;28;20093;-64
2022/05/09 00:31:52;;;;;;;;;;;14.10;99.90;;;;;;5108687;27;20072;-64
2022/05/09 00:34:21;;;;;;;11.80;8.38;;;14.20;99.90;;;;;;5089653;28;19924;-64
2022/05/09 00:36:52;;;;;;;11.18;7.38;;;14.10;99.90;;;;;;5102090;28;20076;-64
2022/05/09 00:39:19;;;;;;;12.52;8.18;;;14.00;99.90;;;;;;5091803;28;20035;-64
2022/05/09 00:41:47;;;;;;;8.95;7.45;;;14.00;99.90;;;;;;5089851;28;20044;-64
2022/05/09 00:44:20;;;;;;;10.02;7.70;;;14.00;99.90;;;;;;5091474;28;20054;-64
2022/05/09 00:46:51;;;;;;;9.38;7.65;;;13.90;99.90;;;;;;5089613;28;20054;-64
2022/05/09 00:49:32;;;;;;;11.40;8.60;;;13.90;99.90;;;;;;5089444;28;20093;-63
2022/05/09 00:52:06;;;;;;;11.45;8.25;;;13.90;99.90;;;;;;5090775;28;20040;-64
2022/05/09 00:54:43;;;;;;;11.80;8.02;;;13.90;99.90;;;;;;5091406;28;20040;-64
2022/05/09 00:57:37;;;;;;;11.32;7.95;;;13.90;99.90;;;;;;5100369;28;20078;-64
2022/05/09 01:00:12;;;;;;;9.20;7.60;;;14.00;99.90;;;;;;5089347;28;20036;-64
2022/05/09 01:02:46;;;;;;;9.80;8.15;;;13.90;99.90;;;;;;5100726;28;20117;-64
2022/05/09 01:05:15;;;;;;;10.57;8.50;;;13.90;99.90;;;;;;5088416;28;20541;-65
2022/05/09 01:07:43;;;;;;;10.52;7.68;;;13.90;99.90;;;;;;5098032;28;20486;-65
2022/05/09 01:10:15;;;;;;;8.68;7.40;;;13.90;99.90;;;;;;5107840;28;20112;-64
2022/05/09 01:12:45;;;;;;;9.35;6.93;;;13.90;99.90;;;;;;5100835;28;20040;-65
2022/05/09 01:15:16;;;;;;;11.32;7.45;;;13.90;99.90;;;;;;5088255;28;20056;-64
2022/05/09 01:17:47;;;;;;;11.13;8.20;;;13.90;99.90;;;;;;5094586;28;20550;-64
2022/05/09 01:20:15;;;;;;;9.17;7.50;;;13.90;99.90;;;;;;5108362;28;20043;-64
2022/05/09 01:22:43;;;;;;;9.93;7.40;;;13.80;99.90;;;;;;5108303;28;20044;-64
2022/05/09 01:25:17;;;;;;;8.70;7.68;;;13.80;99.90;;;;;;5106636;28;20051;-64
2022/05/09 01:27:46;;;;;;;11.20;8.43;;;13.70;99.90;;;;;;5100289;28;20075;-64
2022/05/09 01:30:34;;;;;;;11.95;8.50;;;13.70;99.90;;;;;;5090512;28;20181;-64
2022/05/09 01:33:09;;;;;;;11.27;7.97;;;13.70;99.90;;;;;;5097388;28;20071;-64
2022/05/09 01:35:59;;;;;;;10.48;8.27;;;13.60;99.90;;;;;;5097536;28;20210;-64
2022/05/09 01:38:34;;;;;;;12.15;8.02;;;13.60;99.90;;;;;;5104637;28;20032;-65
2022/05/09 01:41:02;;;;;;;10.77;8.38;;;13.50;99.90;;;;;;5106934;28;20145;-64
2022/05/09 01:43:30;;;;;;;12.82;8.93;;;13.40;99.90;;;;;;5109539;28;20390;-64
2022/05/09 01:45:58;;;;;;;11.27;9.48;;;13.40;99.90;;;;;;5111496;28;20403;-65
2022/05/09 01:51:11;;;;;;;11.80;9.32;;;13.30;99.90;;;;;;5111295;28;20467;-64
2022/05/09 01:53:38;;;;;;;11.73;8.82;;;13.20;99.90;;;;;;5099500;27;20379;-64
2022/05/09 01:56:06;;;;;;;12.52;8.68;;;13.20;99.90;;;;;;5098974;28;20048;-64
2022/05/09 01:58:33;;;;;;;13.43;9.32;;;13.10;99.90;;;;;;5105964;28;20062;-64
2022/05/09 02:01:00;;;;;;;11.75;8.65;;;13.10;99.90;;;;;;5102267;28;20035;-64
2022/05/09 02:03:28;;;;;;;11.00;8.75;;;13.00;99.90;;;;;;5089381;28;20046;-64
2022/05/09 02:05:57;;;;;;;12.40;8.70;;;13.00;99.90;;;;;;5089726;28;20074;-64
2022/05/09 02:08:25;;;;;;;11.88;9.20;;;12.90;99.90;;;;;;5103558;28;20052;-63
2022/05/09 02:10:53;;;;;;;13.07;8.93;;;12.80;99.90;;;;;;5090132;28;20460;-64
2022/05/09 02:13:21;;;;;;;14.48;9.20;;;12.80;99.90;;;;;;5089433;28;20479;-64
2022/05/09 02:15:49;;;;;;;13.40;9.63;;;12.70;99.90;;;;;;5093223;28;20063;-63
2022/05/09 02:18:17;;;;;;;11.38;9.00;;;12.70;99.90;;;;;;5089967;28;20396;-64
2022/05/09 02:20:46;;;;;;;10.90;8.93;;;12.60;99.90;;;;;;5092072;27;20119;-64
2022/05/09 02:23:14;;;;;;;11.32;9.00;;;12.60;99.90;;;;;;5091504;28;20102;-64
2022/05/09 02:25:42;;;;;;;16.13;9.70;;;12.50;99.90;;;;;;5089799;28;20144;-64
2022/05/09 02:28:10;;;;;;;10.77;8.88;;;12.50;99.90;;;;;;5092103;28;20055;-64
2022/05/09 02:30:38;;;;;;;11.95;9.63;;;12.50;99.90;;;;;;5099687;28;20498;-64
2022/05/09 02:33:07;;;;;;;11.52;9.35;;;12.40;99.90;;;;;;5102506;28;20086;-64
2022/05/09 02:35:37;;;;;;;12.70;9.95;;;12.40;99.90;;;;;;5089761;28;20491;-64
2022/05/09 02:38:05;;;;;;;11.32;9.23;;;12.30;99.90;;;;;;5090030;28;20440;-65
2022/05/09 02:40:33;;;;;;;14.38;10.00;;;12.30;99.90;;;;;;5090274;28;20518;-65
2022/05/09 02:43:01;;;;;;;11.32;9.57;;;12.30;99.90;;;;;;5094070;28;20077;-65
2022/05/09 02:45:29;;;;;;;13.43;9.98;;;12.30;99.90;;;;;;5108533;28;20054;-65
2022/05/09 02:47:57;;;;;;;12.60;9.65;;;12.20;99.90;;;;;;5088905;28;20068;-65
2022/05/09 02:50:25;;;;;;;12.15;8.82;;;12.20;99.90;;;;;;5089548;28;20047;-65
2022/05/09 02:52:54;;;;;;;16.50;10.82;;;12.20;99.90;;;;;;5090450;28;20530;-65
2022/05/09 02:55:22;;;;;;;13.18;9.95;;;12.10;99.90;;;;;;5089220;28;20394;-65
2022/05/09 02:57:50;;;;;;;14.90;10.90;;;12.10;99.90;;;;;;5094856;28;20054;-65
2022/05/09 03:00:23;;;;;;;17.00;10.52;;;12.10;99.90;;;;;;5095921;28;20077;-65
2022/05/09 03:05:39;;;;;;;16.23;10.38;;;12.00;99.90;;;;;;5095884;28;20596;-65
2022/05/09 03:08:09;;;;;;;12.65;9.68;;;12.00;99.90;;;;;;5102743;28;20108;-65
2022/05/09 03:10:38;;;;;;;13.27;10.23;;;11.90;99.90;;;;;;5110306;27;20477;-64
2022/05/09 03:13:07;;;;;;;14.27;9.60;;;11.90;99.90;;;;;;5103183;28;20109;-64
2022/05/09 03:15:37;;;;;;;13.00;9.52;;;11.90;99.90;;;;;;5099341;28;20036;-65
2022/05/09 03:18:05;;;;;;;18.02;10.98;;;11.90;99.90;;;;;;5098664;28;20428;-64
2022/05/09 03:20:32;;;;;;;24.30;15.60;;;11.80;99.90;;;;;;5106710;27;20072;-65
2022/05/09 03:23:00;;;;;;;24.48;18.27;;;11.80;99.90;;;;;;5109056;28;20062;-64
2022/05/09 03:25:27;;;;;;;21.10;15.07;;;11.80;99.90;;;;;;5109948;28;20514;-64
2022/05/09 03:27:54;;;;;;;14.82;12.02;;;11.80;99.90;;;;;;5094615;28;20494;-64
2022/05/09 03:30:22;;;;;;;16.10;11.93;;;11.80;99.90;;;;;;5110408;28;20055;-63
2022/05/09 03:32:52;;;;;;;15.10;11.90;;;11.70;99.90;;;;;;5110156;28;20142;-64
2022/05/09 03:35:20;;;;;;;15.95;12.27;;;11.70;99.90;;;;;;5111088;28;20071;-65
2022/05/09 03:37:47;;;;;;;17.65;12.38;;;11.70;99.90;;;;;;5099358;28;20069;-63
2022/05/09 03:40:17;;;;;;;16.55;12.60;;;11.60;99.90;;;;;;5093590;28;20440;-64
2022/05/09 03:42:45;;;;;;;16.55;12.32;;;11.60;99.90;;;;;;5105347;28;20401;-65
2022/05/09 03:45:12;;;;;;;15.35;12.80;;;11.60;99.90;;;;;;5097180;28;20113;-65
2022/05/09 03:47:40;;;;;;;18.25;12.82;;;11.60;99.90;;;;;;5099295;28;20456;-64
2022/05/09 03:50:13;;;;;;;17.58;12.88;;;11.60;99.90;;;;;;5109514;28;20504;-65
2022/05/09 03:52:43;;;;;;;;;;;11.60;99.90;;;;;;5099521;27;20038;-64
2022/05/09 03:55:12;;;;;;;15.43;11.40;;;11.60;99.90;;;;;;5100211;28;19927;-64
2022/05/09 03:57:49;;;;;;;15.13;11.63;;;11.60;99.90;;;;;;5100579;28;20351;-64
2022/05/09 04:00:20;;;;;;;17.73;13.00;;;11.60;99.90;;;;;;5094708;28;20122;-65
2022/05/09 04:02:47;;;;;;;18.88;11.93;;;11.60;99.90;;;;;;5099189;28;20456;-65
2022/05/09 04:05:18;;;;;;;18.35;13.52;;;11.60;99.90;;;;;;5103512;28;20467;-64
2022/05/09 04:07:48;;;;;;;14.10;11.73;;;11.60;99.90;;;;;;5097075;28;20067;-64
2022/05/09 04:10:19;;;;;;;18.05;12.77;;;11.60;99.90;;;;;;5106463;28;20539;-64
2022/05/09 04:12:47;;;;;;;16.17;13.30;;;11.70;99.90;;;;;;5092376;28;20125;-65
2022/05/09 04:18:00;;;;;;;17.00;12.65;;;11.70;99.90;;;;;;5097323;28;20070;-65
2022/05/09 04:20:29;;;;;;;15.43;12.27;;;11.80;99.90;;;;;;5102766;27;20028;-65
2022/05/09 04:22:58;;;;;;;22.13;11.82;;;11.80;99.90;;;;;;5108743;28;20051;-66
2022/05/09 04:25:27;;;;;;;16.00;12.13;;;11.80;99.90;;;;;;5104025;28;20074;-65
2022/05/09 04:27:56;;;;;;;15.93;12.10;;;11.90;99.90;;;;;;5107215;28;20421;-65
2022/05/09 04:30:24;;;;;;;14.80;11.27;;;12.00;99.90;;;;;;5101364;28;20493;-65
2022/05/09 04:32:52;;;;;;;14.93;11.48;;;12.00;99.90;;;;;;5106513;28;20064;-64
2022/05/09 04:35:20;;;;;;;14.80;11.25;;;12.00;99.90;;;;;;5095299;28;20062;-65
2022/05/09 04:37:49;;;;;;;15.85;11.73;;;12.00;99.90;;;;;;5101695;28;20094;-65
2022/05/09 04:40:19;;;;;;;15.00;11.73;;;12.10;99.90;;;;;;5102507;28;20436;-66
2022/05/09 04:42:46;;;;;;;17.45;12.32;;;12.10;99.90;;;;;;5105486;28;20169;-65
2022/05/09 04:45:15;;;;;;;15.80;11.27;;;12.10;99.90;;;;;;5110300;28;20163;-65
2022/05/09 04:47:44;;;;;;;16.88;11.43;;;12.10;99.90;;;;;;5112050;28;20074;-66
2022/05/09 04:50:13;;;;;;;15.52;11.60;;;12.10;99.90;;;;;;5102521;28;20107;-64
2022/05/09 04:52:41;;;;;;;17.45;11.57;;;12.20;99.90;;;;;;5105629;28;20517;-64
2022/05/09 04:55:09;;;;;;;14.50;11.50;;;12.20;99.90;;;;;;5104514;28;20040;-65
2022/05/09 04:57:37;;;;;;;16.48;10.68;;;12.30;99.90;;;;;;5099442;28;20073;-65
2022/05/09 05:00:07;;;;;;;18.17;12.40;;;12.30;99.90;;;;;;5097252;28;20071;-65
2022/05/09 05:02:34;;;;;;;15.18;11.70;;;12.40;99.90;;;;;;5094036;28;20654;-65
2022/05/09 05:05:04;;;;;;;16.85;11.10;;;12.40;99.90;;;;;;5108926;28;20082;-65
2022/05/09 05:07:31;;;;;;;16.98;10.85;;;12.50;99.90;;;;;;5100215;28;20038;-64
2022/05/09 05:09:59;;;;;;;16.25;12.75;;;12.60;99.90;;;;;;5112071;28;20475;-65
2022/05/09 05:12:27;;;;;;;20.80;14.45;;;12.70;99.90;;;;;;5107774;28;20103;-65
2022/05/09 05:14:54;;;;;;;17.45;12.48;;;12.80;99.90;;;;;;5099296;28;20063;-65
2022/05/09 05:17:21;;;;;;;30.23;17.17;;;12.80;99.90;;;;;;5098278;27;20431;-65
2022/05/09 05:19:49;;;;;;;25.15;17.17;;;12.90;99.90;;;;;;5104538;27;20046;-65
2022/05/09 05:22:16;;;;;;;27.15;18.20;;;13.00;99.90;;;;;;5102325;28;20533;-65
2022/05/09 05:24:45;;;;;;;29.00;17.67;;;13.10;99.90;;;;;;5104014;28;20048;-65
2022/05/09 05:27:13;;;;;;;23.60;15.70;;;13.10;99.90;;;;;;5095159;28;20048;-65
2022/05/09 05:29:43;;;;;;;22.92;13.82;;;13.20;99.90;;;;;;5096579;28;20395;-65
2022/05/09 05:32:20;;;;;;;20.02;12.55;;;13.30;99.90;;;;;;5105377;28;20115;-65
2022/05/09 05:34:49;;;;;;;18.85;12.93;;;13.30;99.90;;;;;;5103068;27;20036;-67
2022/05/09 05:37:18;;;;;;;23.10;14.07;;;13.50;99.90;;;;;;5096210;28;20085;-66
2022/05/09 05:39:46;;;;;;;19.40;14.25;;;13.50;99.90;;;;;;5095953;28;20135;-64
2022/05/09 05:42:17;;;;;;;17.33;13.27;;;13.60;99.90;;;;;;5094058;28;20467;-65
2022/05/09 05:44:47;;;;;;;18.25;12.20;;;13.70;99.90;;;;;;5107218;28;20061;-64
2022/05/09 05:47:17;;;;;;;21.90;13.63;;;13.80;99.90;;;;;;5092543;28;20036;-66
2022/05/09 05:49:44;;;;;;;15.32;12.52;;;13.90;99.90;;;;;;5098294;28;20071;-66
2022/05/09 05:52:12;;;;;;;16.45;10.75;;;13.90;99.90;;;;;;5104932;27;20582;-67
2022/05/09 05:54:46;;;;;;;15.30;10.65;;;14.00;99.90;;;;;;5099385;28;20373;-65
2022/05/09 05:57:22;;;;;;;16.52;10.18;;;14.10;99.90;;;;;;5097492;28;20036;-65
2022/05/09 05:59:58;;;;;;;15.32;10.52;;;14.20;99.90;;;;;;5100638;27;20123;-69
2022/05/09 06:02:27;;;;;;;19.42;9.18;;;14.20;99.90;;;;;;5096722;28;20054;-68
2022/05/09 06:04:54;;;;;;;11.55;7.95;;;14.40;99.90;;;;;;5101536;27;20502;-69
2022/05/09 06:07:25;;;;;;;12.30;8.70;;;14.50;99.90;;;;;;5095705;27;20043;-70
2022/05/09 06:09:53;;;;;;;12.07;8.55;;;14.70;99.90;;;;;;5106461;28;20048;-69
2022/05/09 06:12:22;;;;;;;17.05;9.57;;;14.80;99.90;;;;;;5104370;28;20118;-69
2022/05/09 06:15:24;;;;;;;12.32;8.07;;;14.90;99.90;;;;;;5100790;28;20054;-70
2022/05/09 06:17:39;;;;;;;10.55;7.90;;;15.00;99.90;;;;;;5103768;28;20082;-69
2022/05/09 06:20:09;;;;;;;17.20;8.15;;;15.10;99.90;;;;;;5102256;27;20489;-69
2022/05/09 06:22:38;;;;;;;8.85;6.63;;;15.30;99.90;;;;;;5105384;28;20200;-69
2022/05/09 06:25:11;;;;;;;11.48;7.18;;;15.40;99.90;;;;;;5100706;28;20510;-69
2022/05/09 06:27:38;;;;;;;12.45;6.97;;;15.40;99.90;;;;;;5103302;28;20043;-69
2022/05/09 06:30:08;;;;;;;11.13;7.20;;;15.50;99.90;;;;;;5105843;27;20055;-69
2022/05/09 06:32:37;;;;;;;9.97;6.63;;;15.60;99.90;;;;;;5097428;27;20130;-69
2022/05/09 06:35:07;;;;;;;11.25;6.68;;;15.70;99.90;;;;;;5095956;27;20394;-69
2022/05/09 06:37:36;;;;;;;11.73;6.80;;;15.80;99.90;;;;;;5096748;27;20032;-69
2022/05/09 06:40:05;;;;;;;12.23;8.27;;;15.90;99.90;;;;;;5104213;28;20073;-69
2022/05/09 06:42:33;;;;;;;15.40;9.13;;;16.00;99.90;;;;;;5106524;28;20075;-68
2022/05/09 06:45:01;;;;;;;9.30;6.85;;;16.20;99.90;;;;;;5109720;28;20054;-68
2022/05/09 06:47:29;;;;;;;14.25;6.30;;;16.30;99.90;;;;;;5094616;27;20098;-68
2022/05/09 06:50:04;;;;;;;8.45;6.07;;;16.40;99.90;;;;;;5098041;28;20574;-69
2022/05/09 06:52:32;;;;;;;18.60;8.60;;;16.50;99.90;;;;;;5109310;28;20051;-68
2022/05/09 06:54:59;;;;;;;17.85;7.85;;;16.60;99.90;;;;;;5099313;28;20047;-69
2022/05/09 06:57:27;;;;;;;9.02;5.90;;;16.70;99.90;;;;;;5102097;28;20043;-69
2022/05/09 06:59:54;;;;;;;10.88;5.40;;;16.90;99.90;;;;;;5105922;28;20481;-69
2022/05/09 07:02:22;;;;;;;9.73;5.82;;;16.90;99.90;;;;;;5112996;28;20035;-69
2022/05/09 07:04:50;;;;;;;13.02;5.43;;;17.00;99.90;;;;;;5110605;28;20097;-69
2022/05/09 07:07:17;;;;;;;9.02;5.07;;;17.20;99.90;;;;;;5103918;28;20044;-70
2022/05/09 07:09:44;;;;;;;7.43;4.70;;;17.20;99.90;;;;;;5094138;28;20053;-69
2022/05/09 07:12:12;;;;;;;8.95;5.13;;;17.40;99.90;;;;;;5100669;27;20773;-68
2022/05/09 07:14:41;;;;;;;9.27;5.10;;;17.50;99.90;;;;;;5096398;27;20109;-68
2022/05/09 07:17:11;;;;;;;12.60;5.35;;;17.50;99.90;;;;;;5109074;28;20542;-69
2022/05/09 07:19:38;;;;;;;10.18;5.18;;;17.60;99.90;;;;;;5100955;27;20621;-69
2022/05/09 07:22:06;;;;;;;9.57;4.50;;;17.60;99.90;;;;;;5093627;28;20063;-68
2022/05/09 07:24:33;;;;;;;6.53;4.40;;;17.70;99.90;;;;;;5096514;28;20047;-70
2022/05/09 07:27:00;;;;;;;10.68;5.57;;;17.80;99.90;;;;;;5097617;28;20048;-68
2022/05/09 07:29:28;;;;;;;7.15;4.53;;;17.90;99.90;;;;;;5107996;28;20120;-69
2022/05/09 07:31:56;;;;;;;8.90;4.25;;;18.00;99.90;;;;;;5097262;28;20040;-68
2022/05/09 07:34:24;;;;;;;9.57;4.80;;;18.10;99.90;;;;;;5107699;27;20036;-69
2022/05/09 07:36:51;;;;;;;8.18;4.72;;;18.20;99.90;;;;;;5109900;27;20047;-68
2022/05/09 07:39:18;;;;;;;8.25;5.07;;;18.30;99.90;;;;;;5099949;27;20142;-68
2022/05/09 07:41:46;;;;;;;8.32;4.75;;;18.30;99.90;;;;;;5091640;28;20514;-68
2022/05/09 07:44:13;;;;;;;7.60;4.60;;;18.30;99.90;;;;;;5092142;28;20048;-68
2022/05/09 07:46:40;;;;;;;9.13;4.38;;;18.40;99.90;;;;;;5092783;28;20066;-68
2022/05/09 07:49:12;;;;;;;10.73;5.10;;;18.40;99.90;;;;;;5093324;28;20484;-68
2022/05/09 07:51:40;;;;;;;7.43;5.18;;;18.60;99.90;;;;;;5103142;28;20071;-68
2022/05/09 07:54:08;;;;;;;10.70;6.10;;;18.60;99.90;;;;;;5094491;28;20374;-68
2022/05/09 07:56:43;;;;;;;8.60;5.28;;;18.60;99.90;;;;;;5109349;28;20055;-69
2022/05/09 07:59:11;;;;;;;8.68;4.60;;;18.80;99.90;;;;;;5103198;28;20035;-69
2022/05/09 08:01:38;;;;;;;9.10;4.82;;;18.90;99.90;;;;;;5100243;28;20035;-67
2022/05/09 08:04:06;;;;;;;10.15;5.00;;;19.00;99.90;;;;;;5092177;27;20046;-67
2022/05/09 08:06:33;;;;;;;8.60;4.57;;;19.10;99.90;;;;;;5099607;28;20096;-68
2022/05/09 08:09:04;;;;;;;10.73;4.63;;;19.20;99.90;;;;;;5090860;28;20036;-67
2022/05/09 08:11:31;;;;;;;8.68;4.38;;;19.20;99.90;;;;;;5091407;28;20102;-68
2022/05/09 08:13:59;;;;;;;7.97;5.00;;;19.30;99.90;;;;;;5092768;28;20036;-67
2022/05/09 08:16:29;;;;;;;9.18;4.72;;;19.40;99.90;;;;;;5089018;28;20036;-67
2022/05/09 08:18:56;;;;;;;7.30;4.70;;;19.50;99.90;;;;;;5093502;28;20046;-67
2022/05/09 08:21:24;;;;;;;9.38;4.68;;;19.60;99.90;;;;;;5087204;28;20051;-67
2022/05/09 08:23:51;;;;;;;7.22;4.55;;;19.70;99.90;;;;;;5091199;28;20138;-67
2022/05/09 08:26:22;;;;;;;10.63;4.68;;;19.80;99.90;;;;;;5086457;28;20683;-66
2022/05/09 08:28:50;;;;;;;7.75;4.70;;;19.90;99.90;;;;;;5092211;28;20460;-67
2022/05/09 08:31:18;;;;;;;6.93;4.15;;;20.00;99.90;;;;;;5090499;28;20548;-67
2022/05/09 08:33:48;;;;;;;9.13;4.38;;;20.10;99.90;;;;;;5091299;28;20044;-68
2022/05/09 08:39:03;;;;;;;7.18;4.40;;;20.30;99.90;;;;;;5093336;28;20471;-69
2022/05/09 08:41:49;;;;;;;7.05;4.32;;;20.30;99.90;;;;;;5093449;28;20577;-67
2022/05/09 08:44:55;;;;;;;9.48;4.25;;;20.40;99.90;;;;;;5102426;28;20050;-67
2022/05/09 08:47:30;;;;;;;7.93;4.20;;;20.50;99.90;;;;;;5093244;28;20068;-66
2022/05/09 08:50:24;;;;;;;7.10;4.50;;;20.60;99.90;;;;;;5099177;28;20048;-68
2022/05/09 08:53:01;;;;;;;7.10;3.95;;;20.70;99.90;;;;;;5097071;28;20505;-67
2022/05/09 08:55:38;;;;;;;6.53;3.97;;;20.90;99.90;;;;;;5102735;28;20196;-67
2022/05/09 08:58:19;;;;;;;7.75;4.47;;;21.00;99.90;;;;;;5100773;28;20080;-67
2022/05/09 09:00:49;;;;;;;8.52;4.13;;;21.00;99.90;;;;;;5100323;28;20058;-67
2022/05/09 09:03:22;;;;;;;7.40;4.13;;;21.10;99.90;;;;;;5099530;28;20462;-67
2022/05/09 09:05:53;;;;;;;6.90;4.20;;;21.30;99.90;;;;;;5102829;28;20070;-68
2022/05/09 09:08:37;;;;;;;6.78;4.20;;;21.30;99.90;;;;;;5101411;28;20060;-69
2022/05/09 09:11:12;;;;;;;7.10;4.25;;;21.50;99.90;;;;;;5071313;28;20440;-67
2022/05/09 09:14:08;;;;;;;7.95;4.30;;;21.50;99.90;;;;;;5094003;28;20040;-68
2022/05/09 09:17:05;;;;;;;7.82;4.70;;;21.60;99.90;;;;;;5106948;28;20130;-67
2022/05/09 09:19:59;;;;;;;6.68;4.10;;;21.80;99.90;;;;;;5106891;28;20479;-67
2022/05/09 09:22:48;;;;;;;13.55;6.80;;;21.90;99.90;;;;;;5092357;28;20063;-67
2022/05/09 09:25:34;;;;;;;6.97;4.40;;;21.90;99.90;;;;;;5100918;28;21105;-67
2022/05/09 09:28:14;;;;;;;7.38;4.07;;;22.00;99.90;;;;;;5103192;28;20048;-68
2022/05/09 09:30:43;;;;;;;8.90;4.17;;;22.10;99.90;;;;;;5106075;28;20131;-67
2022/05/09 09:33:17;;;;;;;7.70;4.53;;;22.20;99.90;;;;;;5100881;28;23385;-66
2022/05/09 09:35:56;;;;;;;6.57;3.88;;;22.40;99.90;;;;;;5097549;28;20066;-66
2022/05/09 09:38:46;;;;;;;5.72;3.88;;;22.50;99.90;;;;;;5100809;28;20060;-67
2022/05/09 09:41:35;;;;;;;7.00;3.63;;;22.80;99.90;;;;;;5107175;28;20473;-68
2022/05/09 09:44:18;;;;;;;10.25;3.70;;;23.00;99.90;;;;;;5108006;28;20547;-67
2022/05/09 09:47:25;;;;;;;5.45;3.60;;;23.10;99.90;;;;;;5106908;28;20101;-66
2022/05/09 09:50:28;;;;;;;7.68;3.83;;;23.50;99.90;;;;;;5076736;28;20064;-66
2022/05/09 09:52:58;;;;;;;5.00;3.42;;;23.80;99.90;;;;;;5095989;28;20185;-67
2022/05/09 09:55:28;;;;;;;6.50;3.42;;;23.80;99.90;;;;;;5098786;28;20032;-67
2022/05/09 09:57:57;;;;;;;5.70;3.67;;;24.00;99.90;;;;;;5095089;28;20052;-68
2022/05/09 10:00:34;;;;;;;7.70;4.85;;;24.20;99.90;;;;;;5106496;28;20036;-67
2022/05/09 10:03:27;;;;;;;6.97;4.00;;;24.30;99.90;;;;;;5091806;28;20044;-68
2022/05/09 10:05:56;;;;;;;5.53;3.33;;;24.50;99.90;;;;;;5097392;28;20050;-67
2022/05/09 10:08:38;;;;;;;5.13;3.30;;;24.60;99.90;;;;;;5111299;28;20073;-67
2022/05/09 10:11:10;;;;;;;6.40;4.32;;;24.80;99.90;;;;;;5099106;28;20368;-68
2022/05/09 10:13:47;;;;;;;5.20;3.63;;;24.80;99.90;;;;;;5097027;28;20126;-64
2022/05/09 10:16:48;;;;;;;5.57;3.35;;;25.10;99.90;;;;;;5099517;28;20048;-66
2022/05/09 10:19:30;;;;;;;5.07;3.42;;;24.90;99.90;;;;;;5098749;27;20147;-65
2022/05/09 10:24:51;;;;;;;4.85;3.00;;;25.10;99.90;;;;;;5088502;28;20043;-65
2022/05/09 10:27:31;;;;;;;5.30;3.13;;;25.40;99.90;;;;;;5092122;28;20036;-65
2022/05/09 10:30:30;;;;;;;5.80;3.35;;;25.70;99.90;;;;;;5091326;28;20382;-65
2022/05/09 10:33:18;;;;;;;6.75;3.75;;;25.90;99.90;;;;;;5096044;28;20487;-65
2022/05/09 10:35:59;;;;;;;6.30;3.40;;;25.90;99.90;;;;;;5093954;28;20498;-65
2022/05/09 10:38:37;;;;;;;7.03;4.75;;;26.10;99.80;;;;;;5098467;27;20070;-65
2022/05/09 10:41:13;;;;;;;5.40;3.92;;;26.40;99.10;;;;;;5100760;28;20469;-65
2022/05/09 10:43:50;;;;;;;6.07;3.42;;;26.60;97.80;;;;;;5101147;28;20054;-64
2022/05/09 10:46:20;;;;;;;6.50;3.55;;;26.60;98.10;;;;;;5103466;27;20311;-65
2022/05/09 10:49:21;;;;;;;4.70;3.10;;;26.70;98.30;;;;;;5090838;28;20121;-65
2022/05/09 10:52:16;;;;;;;6.97;3.78;;;26.90;96.90;;;;;;5090767;28;20040;-65
2022/05/09 10:54:56;;;;;;;4.72;3.33;;;26.70;96.80;;;;;;5095120;27;20112;-65
2022/05/09 10:57:36;;;;;;;5.03;3.45;;;27.00;96.60;;;;;;5097249;28;20040;-65
2022/05/09 11:00:18;;;;;;;5.65;3.70;;;27.40;95.90;;;;;;5091819;28;20036;-65
2022/05/09 11:03:14;;;;;;;5.90;3.80;;;27.80;95.60;;;;;;5095845;28;20475;-66
2022/05/09 11:05:51;;;;;;;6.97;3.40;;;27.90;95.10;;;;;;5092116;28;20040;-65
2022/05/09 11:08:38;;;;;;;6.80;3.60;;;27.90;94.80;;;;;;5100208;28;20512;-66
2022/05/09 11:11:06;;;;;;;7.53;3.45;;;27.80;95.20;;;;;;5096971;28;20184;-66
2022/05/09 11:14:07;;;;;;;6.55;3.55;;;27.90;94.80;;;;;;5092721;28;20487;-66
2022/05/09 11:16:51;;;;;;;5.00;3.30;;;28.30;94.10;;;;;;5098218;28;20032;-65
2022/05/09 11:19:37;;;;;;;5.85;3.20;;;28.50;93.40;;;;;;5103664;27;20050;-65
2022/05/09 11:22:18;;;;;;;9.27;3.50;;;28.50;93.10;;;;;;5110830;28;20052;-65
2022/05/09 11:25:29;;;;;;;14.27;3.65;;;28.60;92.80;;;;;;5109576;28;20055;-67
2022/05/09 11:28:13;;;;;;;5.53;3.17;;;28.70;92.60;;;;;;5084005;28;20057;-66
2022/05/09 11:30:50;;;;;;;9.80;5.28;;;29.30;92.40;;;;;;5093521;28;20504;-66
2022/05/09 11:33:58;;;;;;;7.55;4.35;;;29.70;91.60;;;;;;5095183;28;20491;-66
2022/05/09 11:36:50;;;;;;;23.58;14.75;;;30.20;89.60;;;;;;5099369;28;20035;-66
2022/05/09 11:39:31;;;;;;;10.68;7.43;;;30.30;87.90;;;;;;5085814;28;20063;-66
2022/05/09 11:43:27;;;;;;;12.68;6.22;;;30.40;87.40;;;;;;5102655;28;20043;-66
2022/05/09 11:45:21;;;;;;;5.47;3.50;;;30.30;86.20;;;;;;5087824;28;20044;-66
2022/05/09 11:48:01;;;;;;;7.22;3.28;;;30.30;83.40;;;;;;5096338;28;20108;-65
2022/05/09 11:50:35;;;;;;;5.60;3.10;;;29.60;84.00;;;;;;5104217;28;20043;-65
2022/05/09 11:53:05;;;;;;;5.57;3.38;;;28.90;85.30;;;;;;5101764;27;20517;-65
2022/05/09 11:55:36;;;;;;;5.47;3.20;;;28.40;85.70;;;;;;5091925;28;20067;-66
2022/05/09 11:58:04;;;;;;;5.30;3.23;;;28.00;87.00;;;;;;5096991;28;20065;-66
2022/05/09 12:00:38;;;;;;;5.75;3.70;;;27.70;86.60;;;;;;5094168;28;20042;-66
2022/05/09 12:03:09;;;;;;;5.50;3.65;;;28.20;85.30;;;;;;5088366;28;20059;-66
2022/05/09 12:05:38;;;;;;;7.82;3.80;;;28.90;84.50;;;;;;5089804;28;20044;-66
2022/05/09 12:08:09;;;;;;;5.38;3.38;;;29.80;84.60;;;;;;5104551;27;20147;-64
2022/05/09 12:10:38;;;;;;;4.97;2.95;;;30.80;83.80;;;;;;5104129;28;20032;-66
2022/05/09 12:13:24;;;;;;;4.97;2.92;;;31.60;82.00;;;;;;5087367;28;20048;-65
2022/05/09 12:15:58;;;;;;;5.10;2.80;;;32.30;78.50;;;;;;5098006;28;20043;-66
2022/05/09 12:18:30;;;;;;;6.10;2.97;;;32.10;76.20;;;;;;5089215;28;20063;-67
2022/05/09 12:21:17;;;;;;;4.85;2.85;;;32.10;75.50;;;;;;5107640;28;20404;-67
2022/05/09 12:23:45;;;;;;;4.72;2.42;;;32.40;74.20;;;;;;5087753;28;20052;-66
2022/05/09 12:26:33;;;;;;;6.13;2.97;;;32.00;73.20;;;;;;5094331;28;20038;-66
2022/05/09 12:29:07;;;;;;;5.37;3.27;;;31.20;74.10;;;;;;5103625;28;20549;-65
2022/05/09 12:31:50;;;;;;;7.00;3.50;;;31.30;76.00;;;;;;5096111;28;20039;-65
2022/05/09 12:34:25;;;;;;;4.60;2.78;;;32.40;73.50;;;;;;5108557;28;20788;-65
2022/05/09 12:36:53;;;;;;;5.80;3.38;;;32.90;72.90;;;;;;5107419;28;20063;-65
2022/05/09 12:39:34;;;;;;;5.50;2.95;;;32.60;72.50;;;;;;5105545;28;20565;-65
2022/05/09 12:42:11;;;;;;;6.13;2.45;;;32.60;70.20;;;;;;5106797;28;20274;-66
2022/05/09 12:44:38;;;;;;;4.85;2.65;;;32.80;69.80;;;;;;5099446;28;20139;-64
2022/05/09 12:47:09;;;;;;;5.38;2.88;;;33.10;68.60;;;;;;5100466;27;20474;-66
2022/05/09 12:49:59;;;;;;;7.32;3.08;;;33.00;69.30;;;;;;5091171;28;20098;-66
2022/05/09 12:52:34;;;;;;;4.65;2.83;;;33.20;67.40;;;;;;5105562;28;20059;-65
2022/05/09 12:57:58;;;;;;;7.38;2.75;;;33.90;65.40;;;;;;5101484;28;20154;-66
2022/05/09 13:00:29;;;;;;;4.70;2.30;;;33.60;64.30;;;;;;5105240;28;20117;-65
2022/05/09 13:03:17;;;;;;;4.75;3.53;;;34.00;64.80;;;;;;5087351;28;20044;-67
2022/05/09 13:05:45;;;;;;;7.93;4.28;;;34.40;64.40;;;;;;5100380;28;20055;-67
2022/05/09 13:08:14;;;;;;;5.85;2.78;;;35.20;64.20;;;;;;5084609;28;20080;-65
2022/05/09 13:10:56;;;;;;;4.40;2.85;;;35.40;63.80;;;;;;5085574;28;20136;-66
2022/05/09 13:13:35;;;;;;;5.93;2.72;;;34.90;63.40;;;;;;5095525;28;20064;-65
2022/05/09 13:16:02;;;;;;;5.78;2.60;;;34.20;64.20;;;;;;5096899;28;20049;-66
2022/05/09 13:18:31;;;;;;;6.57;2.80;;;33.50;65.00;;;;;;5104612;28;20131;-65
2022/05/09 13:21:08;;;;;;;7.07;2.95;;;33.70;64.80;;;;;;5105575;28;20036;-65
2022/05/09 13:23:41;;;;;;;3.50;2.50;;;33.80;64.30;;;;;;5102890;28;20040;-66
2022/05/09 13:26:17;;;;;;;6.65;3.13;;;34.20;63.90;;;;;;5096876;28;20105;-65
2022/05/09 13:29:09;;;;;;;5.35;2.85;;;34.00;63.70;;;;;;5107214;28;20147;-66